Main page
METAR-TAF:

METAR-TAF

Airports :

Ondangwa Airport

Ondangwa, Namibia

latitude: 17-52-42S, longitude: 015-57-09E, elevation: 1096 m

Current weather observation

The report was made 22 minutes ago, at 10:00 UTC
Wind 7 kt from the West/Northwest
Temperature 36°C
Humidity 16%
Pressure 1013 hPa
Visibility 10 km or more
no clouds below 1500 m and no cumulonimbus

METAR: FYOA 191000Z 30007KT CAVOK 36/06 Q1013

Time: 12:22 (10:22 UTC)

Forecast

The report was made 2 hours and 22 minutes ago, at 08:00 UTC
Forecast valid from 19 at 09 UTC to 19 at 18 UTC
Wind 9 kt from the West
Visibility 10 km or more
no clouds below 1500 m and no cumulonimbus
Becoming
from 19 at 10 UTC to 19 at 12 UTC
Visibility 10 km or more
Scattered clouds at a height of 5000 ft

TAF: FYOA 190800Z 1909/1918 28009KT CAVOK BECMG 1910/1912 9999 SCT050

Weather observations and forecasts of more than 4000 airports (METAR and TAF reports).

The available stations are represented by yellow and red dots on the map.

Hover mouse over dot to see the name of the station.

Then click to see weather observations and forecasts.

To change the map : click on the green buttons with a black cross to zoom in, on the green button with a dash to zoom out, or on the green arrows for adjacent maps.


METAR-TAF: